sensor_id;sensor_type;location;lat;lon;timestamp;P1;durP1;ratioP1;P2;durP2;ratioP2
29960;SDS011;16816;44.444;26.152;2022-07-10T00:00:36;4.10;;;3.70;;
29960;SDS011;16816;44.444;26.152;2022-07-10T00:05:40;4.35;;;3.67;;
29960;SDS011;16816;44.444;26.152;2022-07-10T00:10:44;4.65;;;3.42;;
29960;SDS011;16816;44.444;26.152;2022-07-10T00:15:50;4.75;;;3.55;;
29960;SDS011;16816;44.444;26.152;2022-07-10T00:20:53;4.83;;;3.53;;
29960;SDS011;16816;44.444;26.152;2022-07-10T00:25:57;4.05;;;3.60;;
29960;SDS011;16816;44.444;26.152;2022-07-10T00:31:03;5.93;;;3.60;;
29960;SDS011;16816;44.444;26.152;2022-07-10T00:36:07;5.75;;;3.63;;
29960;SDS011;16816;44.444;26.152;2022-07-10T00:41:11;6.50;;;4.22;;
29960;SDS011;16816;44.444;26.152;2022-07-10T00:46:16;4.95;;;3.95;;
29960;SDS011;16816;44.444;26.152;2022-07-10T00:51:23;7.15;;;3.70;;
29960;SDS011;16816;44.444;26.152;2022-07-10T00:56:28;3.50;;;3.20;;
29960;SDS011;16816;44.444;26.152;2022-07-10T01:01:33;5.03;;;3.85;;
29960;SDS011;16816;44.444;26.152;2022-07-10T01:06:37;8.38;;;3.90;;
29960;SDS011;16816;44.444;26.152;2022-07-10T01:11:41;5.13;;;3.67;;
29960;SDS011;16816;44.444;26.152;2022-07-10T01:16:46;4.50;;;3.67;;
29960;SDS011;16816;44.444;26.152;2022-07-10T01:21:52;9.07;;;3.63;;
29960;SDS011;16816;44.444;26.152;2022-07-10T01:26:56;6.65;;;3.95;;
29960;SDS011;16816;44.444;26.152;2022-07-10T01:32:00;4.93;;;3.70;;
29960;SDS011;16816;44.444;26.152;2022-07-10T01:37:06;6.45;;;4.05;;
29960;SDS011;16816;44.444;26.152;2022-07-10T01:42:10;5.03;;;3.58;;
29960;SDS011;16816;44.444;26.152;2022-07-10T01:47:14;4.38;;;3.97;;
29960;SDS011;16816;44.444;26.152;2022-07-10T01:52:19;5.65;;;3.88;;
29960;SDS011;16816;44.444;26.152;2022-07-10T01:57:23;5.95;;;3.50;;
29960;SDS011;16816;44.444;26.152;2022-07-10T02:02:27;5.68;;;3.65;;
29960;SDS011;16816;44.444;26.152;2022-07-10T02:07:32;9.27;;;3.80;;
29960;SDS011;16816;44.444;26.152;2022-07-10T02:12:36;8.13;;;3.40;;
29960;SDS011;16816;44.444;26.152;2022-07-10T02:17:40;6.97;;;4.10;;
29960;SDS011;16816;44.444;26.152;2022-07-10T02:22:46;6.40;;;3.53;;
29960;SDS011;16816;44.444;26.152;2022-07-10T02:27:50;7.55;;;5.00;;
29960;SDS011;16816;44.444;26.152;2022-07-10T02:32:54;8.20;;;4.03;;
29960;SDS011;16816;44.444;26.152;2022-07-10T02:37:59;8.20;;;4.22;;
29960;SDS011;16816;44.444;26.152;2022-07-10T02:43:03;4.22;;;3.65;;
29960;SDS011;16816;44.444;26.152;2022-07-10T02:48:07;6.45;;;3.70;;
29960;SDS011;16816;44.444;26.152;2022-07-10T02:53:13;4.90;;;3.70;;
29960;SDS011;16816;44.444;26.152;2022-07-10T02:58:17;6.63;;;4.00;;
29960;SDS011;16816;44.444;26.152;2022-07-10T03:03:21;7.20;;;4.07;;
29960;SDS011;16816;44.444;26.152;2022-07-10T03:08:27;13.23;;;4.70;;
29960;SDS011;16816;44.444;26.152;2022-07-10T03:13:30;7.65;;;4.25;;
29960;SDS011;16816;44.444;26.152;2022-07-10T03:18:34;6.13;;;4.22;;
29960;SDS011;16816;44.444;26.152;2022-07-10T03:23:40;8.13;;;4.10;;
29960;SDS011;16816;44.444;26.152;2022-07-10T03:28:44;5.33;;;4.17;;
29960;SDS011;16816;44.444;26.152;2022-07-10T03:33:48;5.30;;;4.20;;
29960;SDS011;16816;44.444;26.152;2022-07-10T03:38:53;6.65;;;4.18;;
29960;SDS011;16816;44.444;26.152;2022-07-10T03:43:57;7.17;;;3.87;;
29960;SDS011;16816;44.444;26.152;2022-07-10T03:49:01;9.35;;;4.40;;
29960;SDS011;16816;44.444;26.152;2022-07-10T03:54:06;6.57;;;3.85;;
29960;SDS011;16816;44.444;26.152;2022-07-10T03:59:10;8.85;;;3.35;;
29960;SDS011;16816;44.444;26.152;2022-07-10T04:04:14;5.45;;;3.80;;
29960;SDS011;16816;44.444;26.152;2022-07-10T04:09:19;8.43;;;4.05;;
29960;SDS011;16816;44.444;26.152;2022-07-10T04:14:23;4.47;;;3.73;;
29960;SDS011;16816;44.444;26.152;2022-07-10T04:19:27;7.32;;;3.63;;
29960;SDS011;16816;44.444;26.152;2022-07-10T04:24:32;4.25;;;3.75;;
29960;SDS011;16816;44.444;26.152;2022-07-10T04:34:40;5.65;;;3.55;;
29960;SDS011;16816;44.444;26.152;2022-07-10T04:39:46;4.70;;;3.78;;
29960;SDS011;16816;44.444;26.152;2022-07-10T04:44:50;4.73;;;4.00;;
29960;SDS011;16816;44.444;26.152;2022-07-10T04:49:54;8.93;;;4.80;;
29960;SDS011;16816;44.444;26.152;2022-07-10T04:54:59;9.07;;;5.45;;
29960;SDS011;16816;44.444;26.152;2022-07-10T05:00:03;7.07;;;6.13;;
29960;SDS011;16816;44.444;26.152;2022-07-10T05:05:08;9.77;;;7.05;;
29960;SDS011;16816;44.444;26.152;2022-07-10T05:10:13;8.90;;;6.95;;
29960;SDS011;16816;44.444;26.152;2022-07-10T05:15:17;10.68;;;7.63;;
29960;SDS011;16816;44.444;26.152;2022-07-10T05:20:21;10.90;;;8.15;;
29960;SDS011;16816;44.444;26.152;2022-07-10T05:25:26;9.02;;;8.10;;
29960;SDS011;16816;44.444;26.152;2022-07-10T05:30:32;10.20;;;7.00;;
29960;SDS011;16816;44.444;26.152;2022-07-10T05:35:36;9.48;;;6.85;;
29960;SDS011;16816;44.444;26.152;2022-07-10T05:40:41;9.80;;;7.38;;
29960;SDS011;16816;44.444;26.152;2022-07-10T05:45:45;7.33;;;6.60;;
29960;SDS011;16816;44.444;26.152;2022-07-10T05:50:54;6.82;;;6.13;;
29960;SDS011;16816;44.444;26.152;2022-07-10T05:56:19;7.72;;;6.28;;
29960;SDS011;16816;44.444;26.152;2022-07-10T06:01:24;7.93;;;6.63;;
29960;SDS011;16816;44.444;26.152;2022-07-10T06:06:29;9.60;;;6.72;;
29960;SDS011;16816;44.444;26.152;2022-07-10T06:11:34;11.68;;;6.63;;
29960;SDS011;16816;44.444;26.152;2022-07-10T06:16:39;9.88;;;6.63;;
29960;SDS011;16816;44.444;26.152;2022-07-10T06:21:43;7.22;;;6.13;;
29960;SDS011;16816;44.444;26.152;2022-07-10T06:26:48;6.72;;;5.57;;
29960;SDS011;16816;44.444;26.152;2022-07-10T06:31:52;7.72;;;5.72;;
29960;SDS011;16816;44.444;26.152;2022-07-10T06:36:56;6.30;;;5.63;;
29960;SDS011;16816;44.444;26.152;2022-07-10T06:42:02;8.45;;;5.88;;
29960;SDS011;16816;44.444;26.152;2022-07-10T06:47:14;8.02;;;6.82;;
29960;SDS011;16816;44.444;26.152;2022-07-10T06:52:36;8.88;;;6.10;;
29960;SDS011;16816;44.444;26.152;2022-07-10T06:57:42;6.65;;;4.82;;
29960;SDS011;16816;44.444;26.152;2022-07-10T07:02:46;7.07;;;5.15;;
29960;SDS011;16816;44.444;26.152;2022-07-10T07:07:50;10.23;;;5.07;;
29960;SDS011;16816;44.444;26.152;2022-07-10T07:12:55;5.28;;;4.68;;
29960;SDS011;16816;44.444;26.152;2022-07-10T07:17:59;7.13;;;4.80;;
29960;SDS011;16816;44.444;26.152;2022-07-10T07:23:14;5.55;;;4.85;;
29960;SDS011;16816;44.444;26.152;2022-07-10T07:28:19;7.22;;;5.30;;
29960;SDS011;16816;44.444;26.152;2022-07-10T07:33:23;4.90;;;4.43;;
29960;SDS011;16816;44.444;26.152;2022-07-10T07:38:27;6.75;;;4.43;;
29960;SDS011;16816;44.444;26.152;2022-07-10T07:43:32;5.90;;;3.85;;
29960;SDS011;16816;44.444;26.152;2022-07-10T07:48:36;10.35;;;5.10;;
29960;SDS011;16816;44.444;26.152;2022-07-10T07:53:40;6.45;;;5.15;;
29960;SDS011;16816;44.444;26.152;2022-07-10T07:58:46;8.05;;;5.18;;
29960;SDS011;16816;44.444;26.152;2022-07-10T08:03:50;9.65;;;4.60;;
29960;SDS011;16816;44.444;26.152;2022-07-10T08:09:11;5.20;;;4.53;;
29960;SDS011;16816;44.444;26.152;2022-07-10T08:14:16;6.03;;;4.53;;
29960;SDS011;16816;44.444;26.152;2022-07-10T08:19:20;6.38;;;5.20;;
29960;SDS011;16816;44.444;26.152;2022-07-10T08:24:24;5.22;;;4.72;;
29960;SDS011;16816;44.444;26.152;2022-07-10T08:29:29;5.80;;;5.05;;
29960;SDS011;16816;44.444;26.152;2022-07-10T08:34:33;8.02;;;5.00;;
29960;SDS011;16816;44.444;26.152;2022-07-10T08:39:37;7.25;;;4.50;;
29960;SDS011;16816;44.444;26.152;2022-07-10T08:44:43;8.25;;;4.60;;
29960;SDS011;16816;44.444;26.152;2022-07-10T08:49:47;6.25;;;4.50;;
29960;SDS011;16816;44.444;26.152;2022-07-10T08:54:51;6.80;;;4.60;;
29960;SDS011;16816;44.444;26.152;2022-07-10T08:59:56;8.43;;;4.80;;
29960;SDS011;16816;44.444;26.152;2022-07-10T09:05:00;6.95;;;4.90;;
29960;SDS011;16816;44.444;26.152;2022-07-10T09:10:06;6.40;;;4.45;;
29960;SDS011;16816;44.444;26.152;2022-07-10T09:15:16;5.60;;;4.32;;
29960;SDS011;16816;44.444;26.152;2022-07-10T09:20:24;9.82;;;5.03;;
29960;SDS011;16816;44.444;26.152;2022-07-10T09:25:32;5.50;;;4.00;;
29960;SDS011;16816;44.444;26.152;2022-07-10T09:30:38;4.97;;;3.85;;
29960;SDS011;16816;44.444;26.152;2022-07-10T09:36:00;5.70;;;3.95;;
29960;SDS011;16816;44.444;26.152;2022-07-10T09:46:16;5.78;;;4.00;;
29960;SDS011;16816;44.444;26.152;2022-07-10T09:51:21;5.40;;;4.22;;
29960;SDS011;16816;44.444;26.152;2022-07-10T09:56:25;6.80;;;4.63;;
29960;SDS011;16816;44.444;26.152;2022-07-10T10:01:31;6.93;;;5.17;;
29960;SDS011;16816;44.444;26.152;2022-07-10T10:06:35;5.13;;;4.28;;
29960;SDS011;16816;44.444;26.152;2022-07-10T10:11:40;7.07;;;4.03;;
29960;SDS011;16816;44.444;26.152;2022-07-10T10:16:46;4.13;;;3.70;;
29960;SDS011;16816;44.444;26.152;2022-07-10T10:21:51;5.15;;;3.70;;
29960;SDS011;16816;44.444;26.152;2022-07-10T10:26:55;6.90;;;4.40;;
29960;SDS011;16816;44.444;26.152;2022-07-10T10:32:01;5.97;;;3.63;;
29960;SDS011;16816;44.444;26.152;2022-07-10T10:37:05;7.63;;;3.60;;
29960;SDS011;16816;44.444;26.152;2022-07-10T10:42:09;4.07;;;3.10;;
29960;SDS011;16816;44.444;26.152;2022-07-10T10:53:22;6.07;;;3.60;;
29960;SDS011;16816;44.444;26.152;2022-07-10T10:58:35;5.22;;;4.72;;
29960;SDS011;16816;44.444;26.152;2022-07-10T11:04:01;4.88;;;3.70;;
29960;SDS011;16816;44.444;26.152;2022-07-10T11:09:24;5.57;;;3.40;;
29960;SDS011;16816;44.444;26.152;2022-07-10T11:14:29;6.35;;;3.50;;
29960;SDS011;16816;44.444;26.152;2022-07-10T11:24:40;6.20;;;4.35;;
29960;SDS011;16816;44.444;26.152;2022-07-10T11:29:55;6.63;;;4.32;;
29960;SDS011;16816;44.444;26.152;2022-07-10T11:35:01;11.07;;;5.38;;
29960;SDS011;16816;44.444;26.152;2022-07-10T11:45:25;12.30;;;5.88;;
29960;SDS011;16816;44.444;26.152;2022-07-10T11:50:36;10.30;;;6.45;;
29960;SDS011;16816;44.444;26.152;2022-07-10T11:55:40;7.10;;;5.43;;
29960;SDS011;16816;44.444;26.152;2022-07-10T12:00:49;11.40;;;6.40;;
29960;SDS011;16816;44.444;26.152;2022-07-10T12:06:03;16.80;;;13.05;;
29960;SDS011;16816;44.444;26.152;2022-07-10T12:11:10;7.88;;;4.40;;
29960;SDS011;16816;44.444;26.152;2022-07-10T12:16:15;6.55;;;5.30;;
29960;SDS011;16816;44.444;26.152;2022-07-10T12:21:20;10.13;;;5.68;;
29960;SDS011;16816;44.444;26.152;2022-07-10T12:26:30;5.63;;;4.68;;
29960;SDS011;16816;44.444;26.152;2022-07-10T12:31:37;4.65;;;4.25;;
29960;SDS011;16816;44.444;26.152;2022-07-10T12:36:44;5.75;;;3.30;;
29960;SDS011;16816;44.444;26.152;2022-07-10T12:41:55;4.68;;;3.85;;
29960;SDS011;16816;44.444;26.152;2022-07-10T12:47:00;5.30;;;2.80;;
29960;SDS011;16816;44.444;26.152;2022-07-10T12:52:18;5.25;;;3.85;;
29960;SDS011;16816;44.444;26.152;2022-07-10T12:57:26;2.70;;;2.50;;
29960;SDS011;16816;44.444;26.152;2022-07-10T13:02:30;5.30;;;2.85;;
29960;SDS011;16816;44.444;26.152;2022-07-10T13:12:39;5.65;;;3.22;;
29960;SDS011;16816;44.444;26.152;2022-07-10T13:17:43;4.13;;;3.72;;
29960;SDS011;16816;44.444;26.152;2022-07-10T13:27:53;5.57;;;3.00;;
29960;SDS011;16816;44.444;26.152;2022-07-10T13:32:57;7.13;;;3.45;;
29960;SDS011;16816;44.444;26.152;2022-07-10T13:38:02;5.13;;;3.40;;
29960;SDS011;16816;44.444;26.152;2022-07-10T13:43:07;3.47;;;3.00;;
29960;SDS011;16816;44.444;26.152;2022-07-10T13:48:11;3.83;;;3.28;;
29960;SDS011;16816;44.444;26.152;2022-07-10T13:58:21;5.75;;;3.72;;
29960;SDS011;16816;44.444;26.152;2022-07-10T14:03:25;6.55;;;4.30;;
29960;SDS011;16816;44.444;26.152;2022-07-10T14:08:31;7.13;;;3.87;;
29960;SDS011;16816;44.444;26.152;2022-07-10T14:13:35;4.72;;;3.67;;
29960;SDS011;16816;44.444;26.152;2022-07-10T14:18:39;7.63;;;3.30;;
29960;SDS011;16816;44.444;26.152;2022-07-10T14:23:46;5.68;;;2.70;;
29960;SDS011;16816;44.444;26.152;2022-07-10T14:28:51;3.33;;;2.70;;
29960;SDS011;16816;44.444;26.152;2022-07-10T14:33:55;7.63;;;2.55;;
29960;SDS011;16816;44.444;26.152;2022-07-10T14:39:00;4.72;;;2.00;;
29960;SDS011;16816;44.444;26.152;2022-07-10T14:44:04;2.55;;;2.30;;
29960;SDS011;16816;44.444;26.152;2022-07-10T14:49:08;2.58;;;2.10;;
29960;SDS011;16816;44.444;26.152;2022-07-10T14:54:13;2.58;;;2.38;;
29960;SDS011;16816;44.444;26.152;2022-07-10T15:04:21;6.15;;;2.40;;
29960;SDS011;16816;44.444;26.152;2022-07-10T15:09:26;3.67;;;2.80;;
29960;SDS011;16816;44.444;26.152;2022-07-10T15:19:34;3.90;;;2.30;;
29960;SDS011;16816;44.444;26.152;2022-07-10T15:24:39;5.78;;;2.70;;
29960;SDS011;16816;44.444;26.152;2022-07-10T15:29:45;8.60;;;3.00;;
29960;SDS011;16816;44.444;26.152;2022-07-10T15:34:49;10.25;;;3.10;;
29960;SDS011;16816;44.444;26.152;2022-07-10T15:39:55;5.32;;;3.38;;
29960;SDS011;16816;44.444;26.152;2022-07-10T15:44:59;10.65;;;3.70;;
29960;SDS011;16816;44.444;26.152;2022-07-10T15:50:03;6.10;;;3.08;;
29960;SDS011;16816;44.444;26.152;2022-07-10T15:55:09;8.52;;;3.35;;
29960;SDS011;16816;44.444;26.152;2022-07-10T16:00:13;5.70;;;2.83;;
29960;SDS011;16816;44.444;26.152;2022-07-10T16:05:17;3.42;;;2.53;;
29960;SDS011;16816;44.444;26.152;2022-07-10T16:10:23;5.88;;;2.97;;
29960;SDS011;16816;44.444;26.152;2022-07-10T16:15:27;4.15;;;2.75;;
29960;SDS011;16816;44.444;26.152;2022-07-10T16:20:31;7.05;;;2.97;;
29960;SDS011;16816;44.444;26.152;2022-07-10T16:25:38;4.28;;;3.15;;
29960;SDS011;16816;44.444;26.152;2022-07-10T16:31:02;2.60;;;2.40;;
29960;SDS011;16816;44.444;26.152;2022-07-10T16:36:07;5.22;;;2.20;;
29960;SDS011;16816;44.444;26.152;2022-07-10T16:41:12;6.13;;;2.45;;
29960;SDS011;16816;44.444;26.152;2022-07-10T16:46:16;3.67;;;2.45;;
29960;SDS011;16816;44.444;26.152;2022-07-10T16:51:20;4.57;;;3.25;;
29960;SDS011;16816;44.444;26.152;2022-07-10T16:56:27;4.90;;;2.72;;
29960;SDS011;16816;44.444;26.152;2022-07-10T17:01:31;7.22;;;2.90;;
29960;SDS011;16816;44.444;26.152;2022-07-10T17:06:35;7.78;;;3.40;;
29960;SDS011;16816;44.444;26.152;2022-07-10T17:11:41;4.30;;;2.25;;
29960;SDS011;16816;44.444;26.152;2022-07-10T17:16:45;2.80;;;2.45;;
29960;SDS011;16816;44.444;26.152;2022-07-10T17:21:49;6.72;;;3.15;;
29960;SDS011;16816;44.444;26.152;2022-07-10T17:27:02;7.85;;;2.97;;
29960;SDS011;16816;44.444;26.152;2022-07-10T17:32:06;6.10;;;3.15;;
29960;SDS011;16816;44.444;26.152;2022-07-10T17:37:11;5.00;;;3.13;;
29960;SDS011;16816;44.444;26.152;2022-07-10T17:42:17;5.90;;;3.45;;
29960;SDS011;16816;44.444;26.152;2022-07-10T17:47:21;6.72;;;4.40;;
29960;SDS011;16816;44.444;26.152;2022-07-10T17:57:31;6.13;;;4.45;;
29960;SDS011;16816;44.444;26.152;2022-07-10T18:02:35;9.38;;;6.35;;
29960;SDS011;16816;44.444;26.152;2022-07-10T18:07:39;10.63;;;7.95;;
29960;SDS011;16816;44.444;26.152;2022-07-10T18:12:45;5.68;;;5.03;;
29960;SDS011;16816;44.444;26.152;2022-07-10T18:17:49;6.03;;;4.85;;
29960;SDS011;16816;44.444;26.152;2022-07-10T18:22:54;5.72;;;3.80;;
29960;SDS011;16816;44.444;26.152;2022-07-10T18:27:59;6.30;;;4.32;;
29960;SDS011;16816;44.444;26.152;2022-07-10T18:33:03;6.75;;;4.00;;
29960;SDS011;16816;44.444;26.152;2022-07-10T18:38:31;4.43;;;3.28;;
29960;SDS011;16816;44.444;26.152;2022-07-10T18:43:37;4.93;;;3.42;;
29960;SDS011;16816;44.444;26.152;2022-07-10T18:53:46;5.10;;;3.40;;
29960;SDS011;16816;44.444;26.152;2022-07-10T18:58:52;5.43;;;3.67;;
29960;SDS011;16816;44.444;26.152;2022-07-10T19:03:57;7.18;;;3.30;;
29960;SDS011;16816;44.444;26.152;2022-07-10T19:09:02;7.70;;;3.88;;
29960;SDS011;16816;44.444;26.152;2022-07-10T19:14:07;8.32;;;3.55;;
29960;SDS011;16816;44.444;26.152;2022-07-10T19:19:12;5.93;;;3.17;;
29960;SDS011;16816;44.444;26.152;2022-07-10T19:24:16;7.88;;;4.43;;
29960;SDS011;16816;44.444;26.152;2022-07-10T19:29:25;5.60;;;4.00;;
29960;SDS011;16816;44.444;26.152;2022-07-10T19:34:29;9.48;;;4.10;;
29960;SDS011;16816;44.444;26.152;2022-07-10T19:39:33;5.63;;;4.75;;
29960;SDS011;16816;44.444;26.152;2022-07-10T19:44:39;6.57;;;4.43;;
29960;SDS011;16816;44.444;26.152;2022-07-10T19:49:43;6.53;;;4.30;;
29960;SDS011;16816;44.444;26.152;2022-07-10T19:54:47;5.72;;;4.20;;
29960;SDS011;16816;44.444;26.152;2022-07-10T19:59:53;12.23;;;4.57;;
29960;SDS011;16816;44.444;26.152;2022-07-10T20:04:58;6.28;;;4.50;;
29960;SDS011;16816;44.444;26.152;2022-07-10T20:10:02;8.90;;;4.47;;
29960;SDS011;16816;44.444;26.152;2022-07-10T20:15:08;6.25;;;4.20;;
29960;SDS011;16816;44.444;26.152;2022-07-10T20:20:13;6.03;;;5.03;;
29960;SDS011;16816;44.444;26.152;2022-07-10T20:25:17;7.68;;;3.60;;
29960;SDS011;16816;44.444;26.152;2022-07-10T20:30:22;7.00;;;4.10;;
29960;SDS011;16816;44.444;26.152;2022-07-10T20:35:26;5.20;;;3.87;;
29960;SDS011;16816;44.444;26.152;2022-07-10T20:40:33;5.65;;;4.32;;
29960;SDS011;16816;44.444;26.152;2022-07-10T20:45:39;7.72;;;4.65;;
29960;SDS011;16816;44.444;26.152;2022-07-10T20:50:42;6.55;;;4.25;;
29960;SDS011;16816;44.444;26.152;2022-07-10T20:55:46;5.40;;;4.40;;
29960;SDS011;16816;44.444;26.152;2022-07-10T21:00:52;5.75;;;4.63;;
29960;SDS011;16816;44.444;26.152;2022-07-10T21:05:56;4.55;;;3.67;;
29960;SDS011;16816;44.444;26.152;2022-07-10T21:11:00;9.65;;;5.25;;
29960;SDS011;16816;44.444;26.152;2022-07-10T21:16:06;5.43;;;4.53;;
29960;SDS011;16816;44.444;26.152;2022-07-10T21:21:10;7.25;;;4.78;;
29960;SDS011;16816;44.444;26.152;2022-07-10T21:26:14;4.90;;;4.50;;
29960;SDS011;16816;44.444;26.152;2022-07-10T21:31:21;5.10;;;4.40;;
29960;SDS011;16816;44.444;26.152;2022-07-10T21:36:25;5.38;;;4.85;;
29960;SDS011;16816;44.444;26.152;2022-07-10T21:41:29;5.07;;;4.53;;
29960;SDS011;16816;44.444;26.152;2022-07-10T21:46:34;4.70;;;4.28;;
29960;SDS011;16816;44.444;26.152;2022-07-10T21:51:39;6.13;;;4.45;;
29960;SDS011;16816;44.444;26.152;2022-07-10T21:56:42;5.57;;;4.47;;
29960;SDS011;16816;44.444;26.152;2022-07-10T22:01:48;7.70;;;4.32;;
29960;SDS011;16816;44.444;26.152;2022-07-10T22:06:52;5.43;;;4.13;;
29960;SDS011;16816;44.444;26.152;2022-07-10T22:11:56;8.77;;;5.22;;
29960;SDS011;16816;44.444;26.152;2022-07-10T22:17:01;11.13;;;4.40;;
29960;SDS011;16816;44.444;26.152;2022-07-10T22:22:12;9.52;;;4.50;;
29960;SDS011;16816;44.444;26.152;2022-07-10T22:27:16;8.27;;;4.50;;
29960;SDS011;16816;44.444;26.152;2022-07-10T22:32:21;7.47;;;4.20;;
29960;SDS011;16816;44.444;26.152;2022-07-10T22:37:25;8.27;;;6.87;;
29960;SDS011;16816;44.444;26.152;2022-07-10T22:42:29;7.97;;;5.43;;
29960;SDS011;16816;44.444;26.152;2022-07-10T22:47:34;10.60;;;6.20;;
29960;SDS011;16816;44.444;26.152;2022-07-10T22:52:38;7.60;;;5.23;;
29960;SDS011;16816;44.444;26.152;2022-07-10T22:57:42;4.20;;;3.75;;
29960;SDS011;16816;44.444;26.152;2022-07-10T23:02:47;4.65;;;3.92;;
29960;SDS011;16816;44.444;26.152;2022-07-10T23:07:51;7.10;;;3.90;;
29960;SDS011;16816;44.444;26.152;2022-07-10T23:12:55;5.25;;;3.72;;
29960;SDS011;16816;44.444;26.152;2022-07-10T23:18:01;4.05;;;3.60;;
29960;SDS011;16816;44.444;26.152;2022-07-10T23:28:09;7.70;;;3.60;;
29960;SDS011;16816;44.444;26.152;2022-07-10T23:33:15;6.25;;;4.10;;
29960;SDS011;16816;44.444;26.152;2022-07-10T23:38:18;9.33;;;3.67;;
29960;SDS011;16816;44.444;26.152;2022-07-10T23:43:22;9.00;;;3.58;;
29960;SDS011;16816;44.444;26.152;2022-07-10T23:48:28;8.15;;;3.67;;
29960;SDS011;16816;44.444;26.152;2022-07-10T23:53:49;5.22;;;3.85;;
29960;SDS011;16816;44.444;26.152;2022-07-10T23:58:54;5.32;;;3.72;;
